sensor_id;sensor_type;location;lat;lon;timestamp;temperature;humidity
3156;DHT22;1588;50.892;7.082;2023-12-04T00:04:24;0.40;99.90
3156;DHT22;1588;50.892;7.082;2023-12-04T00:09:27;0.50;99.90
3156;DHT22;1588;50.892;7.082;2023-12-04T00:14:32;0.50;99.90
3156;DHT22;1588;50.892;7.082;2023-12-04T00:19:36;0.50;99.90
3156;DHT22;1588;50.892;7.082;2023-12-04T00:24:40;0.40;99.90
3156;DHT22;1588;50.892;7.082;2023-12-04T00:29:42;0.50;99.90
3156;DHT22;1588;50.892;7.082;2023-12-04T00:34:53;0.50;99.90
3156;DHT22;1588;50.892;7.082;2023-12-04T00:39:56;0.50;99.90
3156;DHT22;1588;50.892;7.082;2023-12-04T00:45:01;0.50;99.90
3156;DHT22;1588;50.892;7.082;2023-12-04T00:50:11;0.50;99.90
3156;DHT22;1588;50.892;7.082;2023-12-04T00:55:37;0.50;99.90
3156;DHT22;1588;50.892;7.082;2023-12-04T01:00:42;0.40;99.90
3156;DHT22;1588;50.892;7.082;2023-12-04T01:05:46;0.30;99.90
3156;DHT22;1588;50.892;7.082;2023-12-04T01:10:49;0.30;99.90
3156;DHT22;1588;50.892;7.082;2023-12-04T01:15:59;0.40;99.90
3156;DHT22;1588;50.892;7.082;2023-12-04T01:21:08;0.40;99.90
3156;DHT22;1588;50.892;7.082;2023-12-04T01:26:16;0.40;99.90
3156;DHT22;1588;50.892;7.082;2023-12-04T01:31:21;0.30;99.90
3156;DHT22;1588;50.892;7.082;2023-12-04T01:36:27;0.40;99.90
3156;DHT22;1588;50.892;7.082;2023-12-04T01:41:30;0.40;99.90
3156;DHT22;1588;50.892;7.082;2023-12-04T01:46:38;0.30;99.90
3156;DHT22;1588;50.892;7.082;2023-12-04T01:51:44;0.30;99.90
3156;DHT22;1588;50.892;7.082;2023-12-04T01:56:47;0.40;99.90
3156;DHT22;1588;50.892;7.082;2023-12-04T02:01:54;0.30;99.90
3156;DHT22;1588;50.892;7.082;2023-12-04T02:06:58;0.30;99.90
3156;DHT22;1588;50.892;7.082;2023-12-04T02:12:01;0.20;99.90
3156;DHT22;1588;50.892;7.082;2023-12-04T02:17:05;0.30;99.90
3156;DHT22;1588;50.892;7.082;2023-12-04T02:22:10;0.30;99.90
3156;DHT22;1588;50.892;7.082;2023-12-04T02:27:17;0.20;99.90
3156;DHT22;1588;50.892;7.082;2023-12-04T02:32:23;0.20;99.90
3156;DHT22;1588;50.892;7.082;2023-12-04T02:37:27;0.30;99.90
3156;DHT22;1588;50.892;7.082;2023-12-04T02:42:31;0.30;99.90
3156;DHT22;1588;50.892;7.082;2023-12-04T02:47:33;0.20;99.90
3156;DHT22;1588;50.892;7.082;2023-12-04T02:52:36;0.30;99.90
3156;DHT22;1588;50.892;7.082;2023-12-04T02:57:40;0.40;99.90
3156;DHT22;1588;50.892;7.082;2023-12-04T03:02:42;0.30;99.90
3156;DHT22;1588;50.892;7.082;2023-12-04T03:07:44;0.30;99.90
3156;DHT22;1588;50.892;7.082;2023-12-04T03:12:48;0.30;99.90
3156;DHT22;1588;50.892;7.082;2023-12-04T03:17:50;0.30;99.90
3156;DHT22;1588;50.892;7.082;2023-12-04T03:22:53;0.30;99.90
3156;DHT22;1588;50.892;7.082;2023-12-04T03:27:57;0.30;99.90
3156;DHT22;1588;50.892;7.082;2023-12-04T03:33:00;0.30;99.90
3156;DHT22;1588;50.892;7.082;2023-12-04T03:38:02;0.20;99.90
3156;DHT22;1588;50.892;7.082;2023-12-04T03:43:06;0.20;99.90
3156;DHT22;1588;50.892;7.082;2023-12-04T03:48:09;0.30;99.90
3156;DHT22;1588;50.892;7.082;2023-12-04T03:53:12;0.20;99.90
3156;DHT22;1588;50.892;7.082;2023-12-04T03:58:16;0.20;99.90
3156;DHT22;1588;50.892;7.082;2023-12-04T04:03:18;0.20;99.90
3156;DHT22;1588;50.892;7.082;2023-12-04T04:08:21;0.20;99.90
3156;DHT22;1588;50.892;7.082;2023-12-04T04:13:24;0.10;99.90
3156;DHT22;1588;50.892;7.082;2023-12-04T04:18:27;0.20;99.90
3156;DHT22;1588;50.892;7.082;2023-12-04T04:23:29;0.10;99.90
3156;DHT22;1588;50.892;7.082;2023-12-04T04:28:33;0.20;99.90
3156;DHT22;1588;50.892;7.082;2023-12-04T04:33:35;0.20;99.90
3156;DHT22;1588;50.892;7.082;2023-12-04T04:38:39;0.20;99.90
3156;DHT22;1588;50.892;7.082;2023-12-04T04:43:43;0.30;99.90
3156;DHT22;1588;50.892;7.082;2023-12-04T04:48:45;0.30;99.90
3156;DHT22;1588;50.892;7.082;2023-12-04T04:53:48;0.20;99.90
3156;DHT22;1588;50.892;7.082;2023-12-04T04:58:52;0.20;99.90
3156;DHT22;1588;50.892;7.082;2023-12-04T05:03:54;0.10;99.90
3156;DHT22;1588;50.892;7.082;2023-12-04T05:08:57;0.10;99.90
3156;DHT22;1588;50.892;7.082;2023-12-04T05:14:01;0.10;99.90
3156;DHT22;1588;50.892;7.082;2023-12-04T05:19:03;0.10;99.90
3156;DHT22;1588;50.892;7.082;2023-12-04T05:24:07;0.10;99.90
3156;DHT22;1588;50.892;7.082;2023-12-04T05:29:10;0.00;99.90
3156;DHT22;1588;50.892;7.082;2023-12-04T05:34:13;0.10;99.90
3156;DHT22;1588;50.892;7.082;2023-12-04T05:39:15;0.10;99.90
3156;DHT22;1588;50.892;7.082;2023-12-04T05:44:20;0.10;99.90
3156;DHT22;1588;50.892;7.082;2023-12-04T05:49:36;0.10;99.90
3156;DHT22;1588;50.892;7.082;2023-12-04T05:54:41;0.10;99.90
3156;DHT22;1588;50.892;7.082;2023-12-04T05:59:45;0.10;99.90
3156;DHT22;1588;50.892;7.082;2023-12-04T06:04:47;0.20;99.90
3156;DHT22;1588;50.892;7.082;2023-12-04T06:09:49;0.10;99.90
3156;DHT22;1588;50.892;7.082;2023-12-04T06:14:53;0.10;99.90
3156;DHT22;1588;50.892;7.082;2023-12-04T06:19:56;0.10;99.90
3156;DHT22;1588;50.892;7.082;2023-12-04T06:24:59;0.20;99.90
3156;DHT22;1588;50.892;7.082;2023-12-04T06:30:04;0.20;99.90
3156;DHT22;1588;50.892;7.082;2023-12-04T06:35:08;0.20;99.90
3156;DHT22;1588;50.892;7.082;2023-12-04T06:40:11;0.20;99.90
3156;DHT22;1588;50.892;7.082;2023-12-04T06:45:16;0.20;99.90
3156;DHT22;1588;50.892;7.082;2023-12-04T06:50:21;0.20;99.90
3156;DHT22;1588;50.892;7.082;2023-12-04T06:55:23;0.20;99.90
3156;DHT22;1588;50.892;7.082;2023-12-04T07:00:27;0.30;99.90
3156;DHT22;1588;50.892;7.082;2023-12-04T07:05:30;0.30;99.90
3156;DHT22;1588;50.892;7.082;2023-12-04T07:10:32;0.20;99.90
3156;DHT22;1588;50.892;7.082;2023-12-04T07:15:36;0.20;99.90
3156;DHT22;1588;50.892;7.082;2023-12-04T07:20:38;0.30;99.90
3156;DHT22;1588;50.892;7.082;2023-12-04T07:25:41;0.30;99.90
3156;DHT22;1588;50.892;7.082;2023-12-04T07:30:45;0.40;99.90
3156;DHT22;1588;50.892;7.082;2023-12-04T07:35:47;0.40;99.90
3156;DHT22;1588;50.892;7.082;2023-12-04T07:40:50;0.50;99.90
3156;DHT22;1588;50.892;7.082;2023-12-04T07:45:55;0.50;99.90
3156;DHT22;1588;50.892;7.082;2023-12-04T07:50:58;0.50;99.90
3156;DHT22;1588;50.892;7.082;2023-12-04T07:56:01;0.50;99.90
3156;DHT22;1588;50.892;7.082;2023-12-04T08:01:06;0.50;99.90
3156;DHT22;1588;50.892;7.082;2023-12-04T08:06:09;0.60;99.90
3156;DHT22;1588;50.892;7.082;2023-12-04T08:11:12;0.60;99.90
3156;DHT22;1588;50.892;7.082;2023-12-04T08:16:16;0.60;99.90
3156;DHT22;1588;50.892;7.082;2023-12-04T08:21:18;0.60;99.90
3156;DHT22;1588;50.892;7.082;2023-12-04T08:26:24;0.60;99.90
3156;DHT22;1588;50.892;7.082;2023-12-04T08:31:29;0.60;99.90
3156;DHT22;1588;50.892;7.082;2023-12-04T08:36:34;0.50;99.90
3156;DHT22;1588;50.892;7.082;2023-12-04T08:41:37;0.50;99.90
3156;DHT22;1588;50.892;7.082;2023-12-04T08:46:43;0.50;99.90
3156;DHT22;1588;50.892;7.082;2023-12-04T08:51:46;0.60;99.90
3156;DHT22;1588;50.892;7.082;2023-12-04T08:56:48;0.70;99.90
3156;DHT22;1588;50.892;7.082;2023-12-04T09:01:53;0.70;99.90
3156;DHT22;1588;50.892;7.082;2023-12-04T09:06:55;0.70;99.90
3156;DHT22;1588;50.892;7.082;2023-12-04T09:11:58;0.80;99.90
3156;DHT22;1588;50.892;7.082;2023-12-04T09:17:02;0.80;99.90
3156;DHT22;1588;50.892;7.082;2023-12-04T09:22:13;0.80;99.90
3156;DHT22;1588;50.892;7.082;2023-12-04T09:27:16;0.80;99.90
3156;DHT22;1588;50.892;7.082;2023-12-04T09:32:20;0.80;99.90
3156;DHT22;1588;50.892;7.082;2023-12-04T09:37:23;0.90;99.90
3156;DHT22;1588;50.892;7.082;2023-12-04T09:42:26;0.90;99.90
3156;DHT22;1588;50.892;7.082;2023-12-04T09:47:33;1.00;99.90
3156;DHT22;1588;50.892;7.082;2023-12-04T09:52:36;1.10;99.90
3156;DHT22;1588;50.892;7.082;2023-12-04T09:57:39;1.20;99.90
3156;DHT22;1588;50.892;7.082;2023-12-04T10:02:43;1.30;99.90
3156;DHT22;1588;50.892;7.082;2023-12-04T10:07:56;1.40;99.90
3156;DHT22;1588;50.892;7.082;2023-12-04T10:13:00;1.50;99.90
3156;DHT22;1588;50.892;7.082;2023-12-04T10:18:04;1.40;99.90
3156;DHT22;1588;50.892;7.082;2023-12-04T10:23:06;1.40;99.90
3156;DHT22;1588;50.892;7.082;2023-12-04T10:28:13;1.40;99.90
3156;DHT22;1588;50.892;7.082;2023-12-04T10:33:18;1.50;99.90
3156;DHT22;1588;50.892;7.082;2023-12-04T10:38:21;1.40;99.90
3156;DHT22;1588;50.892;7.082;2023-12-04T10:43:24;1.50;99.90
3156;DHT22;1588;50.892;7.082;2023-12-04T10:48:28;1.50;99.90
3156;DHT22;1588;50.892;7.082;2023-12-04T10:53:31;1.50;99.90
3156;DHT22;1588;50.892;7.082;2023-12-04T10:58:34;1.60;99.90
3156;DHT22;1588;50.892;7.082;2023-12-04T11:03:44;1.50;99.90
3156;DHT22;1588;50.892;7.082;2023-12-04T11:08:48;1.50;99.90
3156;DHT22;1588;50.892;7.082;2023-12-04T11:14:00;1.50;99.90
3156;DHT22;1588;50.892;7.082;2023-12-04T11:19:18;1.50;99.90
3156;DHT22;1588;50.892;7.082;2023-12-04T11:24:23;1.50;99.90
3156;DHT22;1588;50.892;7.082;2023-12-04T11:29:30;1.70;99.90
3156;DHT22;1588;50.892;7.082;2023-12-04T11:34:53;1.50;99.90
3156;DHT22;1588;50.892;7.082;2023-12-04T11:40:05;1.50;99.90
3156;DHT22;1588;50.892;7.082;2023-12-04T11:45:18;1.50;99.90
3156;DHT22;1588;50.892;7.082;2023-12-04T11:50:24;1.50;99.90
3156;DHT22;1588;50.892;7.082;2023-12-04T11:55:27;1.50;99.90
3156;DHT22;1588;50.892;7.082;2023-12-04T12:00:36;1.20;99.90
3156;DHT22;1588;50.892;7.082;2023-12-04T12:06:11;1.10;99.90
3156;DHT22;1588;50.892;7.082;2023-12-04T12:11:18;1.10;99.90
3156;DHT22;1588;50.892;7.082;2023-12-04T12:16:23;1.00;99.90
3156;DHT22;1588;50.892;7.082;2023-12-04T12:21:28;1.00;99.90
3156;DHT22;1588;50.892;7.082;2023-12-04T12:26:32;1.00;99.90
3156;DHT22;1588;50.892;7.082;2023-12-04T12:31:35;1.00;99.90
3156;DHT22;1588;50.892;7.082;2023-12-04T12:36:42;1.00;99.90
3156;DHT22;1588;50.892;7.082;2023-12-04T12:41:47;1.00;99.90
3156;DHT22;1588;50.892;7.082;2023-12-04T12:46:52;1.00;99.90
3156;DHT22;1588;50.892;7.082;2023-12-04T12:51:56;1.00;99.90
3156;DHT22;1588;50.892;7.082;2023-12-04T12:57:02;1.10;99.90
3156;DHT22;1588;50.892;7.082;2023-12-04T13:02:04;1.20;99.90
3156;DHT22;1588;50.892;7.082;2023-12-04T13:07:08;1.20;99.90
3156;DHT22;1588;50.892;7.082;2023-12-04T13:12:11;1.10;99.90
3156;DHT22;1588;50.892;7.082;2023-12-04T13:17:19;1.00;99.90
3156;DHT22;1588;50.892;7.082;2023-12-04T13:22:27;1.10;99.90
3156;DHT22;1588;50.892;7.082;2023-12-04T13:27:31;1.10;99.90
3156;DHT22;1588;50.892;7.082;2023-12-04T13:32:34;1.10;99.90
3156;DHT22;1588;50.892;7.082;2023-12-04T13:37:38;1.20;99.90
3156;DHT22;1588;50.892;7.082;2023-12-04T13:42:41;1.20;99.90
3156;DHT22;1588;50.892;7.082;2023-12-04T13:48:01;1.20;99.90
3156;DHT22;1588;50.892;7.082;2023-12-04T13:53:11;1.20;99.90
3156;DHT22;1588;50.892;7.082;2023-12-04T13:58:16;1.20;99.90
3156;DHT22;1588;50.892;7.082;2023-12-04T14:03:32;1.30;99.90
3156;DHT22;1588;50.892;7.082;2023-12-04T14:08:37;1.30;99.90
3156;DHT22;1588;50.892;7.082;2023-12-04T14:13:44;1.30;99.90
3156;DHT22;1588;50.892;7.082;2023-12-04T14:18:46;1.30;99.90
3156;DHT22;1588;50.892;7.082;2023-12-04T14:23:50;1.30;99.90
3156;DHT22;1588;50.892;7.082;2023-12-04T14:28:53;1.30;99.90
3156;DHT22;1588;50.892;7.082;2023-12-04T14:33:57;1.30;99.90
3156;DHT22;1588;50.892;7.082;2023-12-04T14:39:01;1.30;99.90
3156;DHT22;1588;50.892;7.082;2023-12-04T14:44:04;1.30;99.90
3156;DHT22;1588;50.892;7.082;2023-12-04T14:49:07;1.30;99.90
3156;DHT22;1588;50.892;7.082;2023-12-04T14:54:11;1.30;99.90
3156;DHT22;1588;50.892;7.082;2023-12-04T14:59:23;1.30;99.90
3156;DHT22;1588;50.892;7.082;2023-12-04T15:04:40;1.30;99.90
3156;DHT22;1588;50.892;7.082;2023-12-04T15:10:00;1.30;99.90
3156;DHT22;1588;50.892;7.082;2023-12-04T15:15:17;1.30;99.90
3156;DHT22;1588;50.892;7.082;2023-12-04T15:20:36;1.30;99.90
3156;DHT22;1588;50.892;7.082;2023-12-04T15:25:41;1.30;99.90
3156;DHT22;1588;50.892;7.082;2023-12-04T15:30:43;1.20;99.90
3156;DHT22;1588;50.892;7.082;2023-12-04T15:35:46;1.20;99.90
3156;DHT22;1588;50.892;7.082;2023-12-04T15:40:50;1.10;99.90
3156;DHT22;1588;50.892;7.082;2023-12-04T15:45:54;1.10;99.90
3156;DHT22;1588;50.892;7.082;2023-12-04T15:50:58;1.10;99.90
3156;DHT22;1588;50.892;7.082;2023-12-04T15:56:07;1.00;99.90
3156;DHT22;1588;50.892;7.082;2023-12-04T16:01:10;1.00;99.90
3156;DHT22;1588;50.892;7.082;2023-12-04T16:06:12;1.10;99.90
3156;DHT22;1588;50.892;7.082;2023-12-04T16:11:19;1.20;99.90
3156;DHT22;1588;50.892;7.082;2023-12-04T16:16:21;1.20;99.90
3156;DHT22;1588;50.892;7.082;2023-12-04T16:21:24;1.30;99.90
3156;DHT22;1588;50.892;7.082;2023-12-04T16:26:27;1.40;99.90
3156;DHT22;1588;50.892;7.082;2023-12-04T16:31:31;1.40;99.90
3156;DHT22;1588;50.892;7.082;2023-12-04T16:36:33;1.50;99.90
3156;DHT22;1588;50.892;7.082;2023-12-04T16:41:38;1.50;99.90
3156;DHT22;1588;50.892;7.082;2023-12-04T16:46:40;1.60;99.90
3156;DHT22;1588;50.892;7.082;2023-12-04T16:51:43;1.60;99.90
3156;DHT22;1588;50.892;7.082;2023-12-04T16:56:48;1.60;99.90
3156;DHT22;1588;50.892;7.082;2023-12-04T17:01:51;1.60;99.90
3156;DHT22;1588;50.892;7.082;2023-12-04T17:06:53;1.60;99.90
3156;DHT22;1588;50.892;7.082;2023-12-04T17:11:58;1.60;99.90
3156;DHT22;1588;50.892;7.082;2023-12-04T17:17:04;1.60;99.90
3156;DHT22;1588;50.892;7.082;2023-12-04T17:22:07;1.60;99.90
3156;DHT22;1588;50.892;7.082;2023-12-04T17:27:11;1.70;99.90
3156;DHT22;1588;50.892;7.082;2023-12-04T17:32:13;1.60;99.90
3156;DHT22;1588;50.892;7.082;2023-12-04T17:37:19;1.60;99.90
3156;DHT22;1588;50.892;7.082;2023-12-04T17:42:23;1.50;99.90
3156;DHT22;1588;50.892;7.082;2023-12-04T17:47:26;1.50;99.90
3156;DHT22;1588;50.892;7.082;2023-12-04T17:52:29;1.50;99.90
3156;DHT22;1588;50.892;7.082;2023-12-04T17:57:33;1.40;99.90
3156;DHT22;1588;50.892;7.082;2023-12-04T18:02:36;1.40;99.90
3156;DHT22;1588;50.892;7.082;2023-12-04T18:07:39;1.40;99.90
3156;DHT22;1588;50.892;7.082;2023-12-04T18:12:45;1.30;99.90
3156;DHT22;1588;50.892;7.082;2023-12-04T18:17:48;1.40;99.90
3156;DHT22;1588;50.892;7.082;2023-12-04T18:22:51;1.40;99.90
3156;DHT22;1588;50.892;7.082;2023-12-04T18:27:55;1.40;99.90
3156;DHT22;1588;50.892;7.082;2023-12-04T18:33:00;1.40;99.90
3156;DHT22;1588;50.892;7.082;2023-12-04T18:38:05;1.40;99.90
3156;DHT22;1588;50.892;7.082;2023-12-04T18:43:10;1.50;99.90
3156;DHT22;1588;50.892;7.082;2023-12-04T18:48:16;1.50;99.90
3156;DHT22;1588;50.892;7.082;2023-12-04T18:53:21;1.50;99.90
3156;DHT22;1588;50.892;7.082;2023-12-04T18:58:25;1.60;99.90
3156;DHT22;1588;50.892;7.082;2023-12-04T19:03:29;1.60;99.90
3156;DHT22;1588;50.892;7.082;2023-12-04T19:08:31;1.60;99.90
3156;DHT22;1588;50.892;7.082;2023-12-04T19:13:36;1.60;99.90
3156;DHT22;1588;50.892;7.082;2023-12-04T19:18:38;1.70;99.90
3156;DHT22;1588;50.892;7.082;2023-12-04T19:23:41;1.70;99.90
3156;DHT22;1588;50.892;7.082;2023-12-04T19:28:45;1.70;99.90
3156;DHT22;1588;50.892;7.082;2023-12-04T19:33:48;1.80;99.90
3156;DHT22;1588;50.892;7.082;2023-12-04T19:38:51;1.80;99.90
3156;DHT22;1588;50.892;7.082;2023-12-04T19:43:55;1.90;99.90
3156;DHT22;1588;50.892;7.082;2023-12-04T19:48:57;1.90;99.90
3156;DHT22;1588;50.892;7.082;2023-12-04T19:54:03;1.90;99.90
3156;DHT22;1588;50.892;7.082;2023-12-04T19:59:08;2.00;99.90
3156;DHT22;1588;50.892;7.082;2023-12-04T20:04:10;1.90;99.90
3156;DHT22;1588;50.892;7.082;2023-12-04T20:09:12;2.00;99.90
3156;DHT22;1588;50.892;7.082;2023-12-04T20:14:16;2.10;99.90
3156;DHT22;1588;50.892;7.082;2023-12-04T20:19:19;2.00;99.90
3156;DHT22;1588;50.892;7.082;2023-12-04T20:24:21;2.10;99.90
3156;DHT22;1588;50.892;7.082;2023-12-04T20:29:25;2.10;99.90
3156;DHT22;1588;50.892;7.082;2023-12-04T20:34:30;2.20;99.90
3156;DHT22;1588;50.892;7.082;2023-12-04T20:39:35;2.20;99.90
3156;DHT22;1588;50.892;7.082;2023-12-04T20:44:40;2.20;99.90
3156;DHT22;1588;50.892;7.082;2023-12-04T20:49:42;2.20;99.90
3156;DHT22;1588;50.892;7.082;2023-12-04T20:54:45;2.20;99.90
3156;DHT22;1588;50.892;7.082;2023-12-04T20:59:49;2.20;99.90
3156;DHT22;1588;50.892;7.082;2023-12-04T21:04:51;2.30;99.90
3156;DHT22;1588;50.892;7.082;2023-12-04T21:09:54;2.20;99.90
3156;DHT22;1588;50.892;7.082;2023-12-04T21:14:58;2.30;99.90
3156;DHT22;1588;50.892;7.082;2023-12-04T21:20:05;2.30;99.90
3156;DHT22;1588;50.892;7.082;2023-12-04T21:25:09;2.30;99.90
3156;DHT22;1588;50.892;7.082;2023-12-04T21:30:13;2.30;99.90
3156;DHT22;1588;50.892;7.082;2023-12-04T21:35:16;2.30;99.90
3156;DHT22;1588;50.892;7.082;2023-12-04T21:40:18;2.40;99.90
3156;DHT22;1588;50.892;7.082;2023-12-04T21:45:22;2.40;99.90
3156;DHT22;1588;50.892;7.082;2023-12-04T21:50:25;2.50;99.90
3156;DHT22;1588;50.892;7.082;2023-12-04T21:55:27;2.50;99.90
3156;DHT22;1588;50.892;7.082;2023-12-04T22:00:31;2.50;99.90
3156;DHT22;1588;50.892;7.082;2023-12-04T22:05:34;2.50;99.90
3156;DHT22;1588;50.892;7.082;2023-12-04T22:10:36;2.60;99.90
3156;DHT22;1588;50.892;7.082;2023-12-04T22:15:40;2.50;99.90
3156;DHT22;1588;50.892;7.082;2023-12-04T22:20:43;2.60;99.90
3156;DHT22;1588;50.892;7.082;2023-12-04T22:25:47;2.70;99.90
3156;DHT22;1588;50.892;7.082;2023-12-04T22:30:51;2.70;99.90
3156;DHT22;1588;50.892;7.082;2023-12-04T22:35:53;2.70;99.90
3156;DHT22;1588;50.892;7.082;2023-12-04T22:40:56;2.80;99.90
3156;DHT22;1588;50.892;7.082;2023-12-04T22:46:00;2.80;99.90
3156;DHT22;1588;50.892;7.082;2023-12-04T22:51:05;2.70;99.90
3156;DHT22;1588;50.892;7.082;2023-12-04T22:56:18;2.90;99.90
3156;DHT22;1588;50.892;7.082;2023-12-04T23:01:38;2.80;99.90
3156;DHT22;1588;50.892;7.082;2023-12-04T23:06:55;2.90;99.90
3156;DHT22;1588;50.892;7.082;2023-12-04T23:12:00;2.90;99.90
3156;DHT22;1588;50.892;7.082;2023-12-04T23:17:09;2.90;99.90
3156;DHT22;1588;50.892;7.082;2023-12-04T23:22:12;2.90;99.90
3156;DHT22;1588;50.892;7.082;2023-12-04T23:27:15;2.90;99.90
3156;DHT22;1588;50.892;7.082;2023-12-04T23:32:19;3.00;99.90
3156;DHT22;1588;50.892;7.082;2023-12-04T23:37:23;3.00;99.90
3156;DHT22;1588;50.892;7.082;2023-12-04T23:42:29;2.90;99.90
3156;DHT22;1588;50.892;7.082;2023-12-04T23:47:33;3.00;99.90
3156;DHT22;1588;50.892;7.082;2023-12-04T23:52:36;3.00;99.90
3156;DHT22;1588;50.892;7.082;2023-12-04T23:57:43;3.00;99.90
